Time;durP1;ratioP1;P1;durP2;ratioP2;P2;SDS_P1;SDS_P2;PMS_P1;PMS_P2;Temp;Humidity;BMP_temperature;BMP_pressure;BME280_temperature;BME280_humidity;BME280_pressure;Samples;Min_cycle;Max_cycle;Signal;HPM_P1;HPM_P2
2022/08/09 00:00:21;;;;;;;1.27;1.13;;;;;;;;;;5101091;28;20648;-62
2022/08/09 00:02:50;;;;;;;1.00;1.00;;;;;;;;;;5100920;28;20659;-62
2022/08/09 00:05:19;;;;;;;1.40;1.30;;;;;;;;;;5101349;28;20211;-62
2022/08/09 00:08:09;;;;;;;5.60;1.83;;;;;;;;;;5100746;28;20318;-62
2022/08/09 00:10:57;;;;;;;5.70;1.50;;;;;;;;;;5100808;28;20231;-62
2022/08/09 00:13:25;;;;;;;1.23;1.20;;;;;;;;;;5100532;28;20709;-62
2022/08/09 00:15:55;;;;;;;0.90;0.90;;;;;;;;;;5100974;28;20207;-62
2022/08/09 00:18:30;;;;;;;1.00;1.00;;;;;;;;;;5101092;28;20242;-62
2022/08/09 00:21:03;;;;;;;1.47;1.23;;;;;;;;;;5100945;28;20209;-62
2022/08/09 00:23:31;;;;;;;1.27;1.13;;;;;;;;;;5108260;28;20258;-62
2022/08/09 00:26:19;;;;;;;4.73;0.97;;;;;;;;;;5121198;28;20213;-62
2022/08/09 00:28:59;;;;;;;1.20;1.10;;;;;;;;;;5120608;28;20277;-62
2022/08/09 00:31:29;;;;;;;1.10;1.00;;;;;;;;;;5121225;28;20206;-62
2022/08/09 00:34:17;;;;;;;1.00;0.90;;;;;;;;;;5120905;28;20315;-63
2022/08/09 00:36:46;;;;;;;1.03;0.93;;;;;;;;;;5120788;28;20673;-62
2022/08/09 00:39:15;;;;;;;1.67;1.10;;;;;;;;;;5121002;28;20204;-62
2022/08/09 00:42:03;;;;;;;1.03;0.87;;;;;;;;;;5120251;28;20738;-62
2022/08/09 00:44:51;;;;;;;1.57;1.47;;;;;;;;;;5120843;28;20236;-62
2022/08/09 00:47:21;;;;;;;1.10;1.00;;;;;;;;;;5120817;28;20241;-62
2022/08/09 00:49:52;;;;;;;1.43;1.20;;;;;;;;;;5106996;28;20233;-62
2022/08/09 00:52:23;;;;;;;1.03;1.00;;;;;;;;;;5107939;28;20206;-62
2022/08/09 00:54:57;;;;;;;0.93;0.93;;;;;;;;;;5120594;28;20229;-62
2022/08/09 00:57:27;;;;;;;1.40;1.30;;;;;;;;;;5120128;28;20269;-62
2022/08/09 01:00:01;;;;;;;1.37;1.20;;;;;;;;;;5103731;27;20195;-62
2022/08/09 01:02:51;;;;;;;1.07;0.97;;;;;;;;;;5119865;28;20210;-62
2022/08/09 01:05:23;;;;;;;2.43;0.97;;;;;;;;;;5120539;28;20210;-62
2022/08/09 01:08:13;;;;;;;1.43;1.00;;;;;;;;;;5120132;28;20297;-62
2022/08/09 01:10:48;;;;;;;1.00;1.00;;;;;;;;;;5120374;28;20267;-61
2022/08/09 01:13:20;;;;;;;3.20;1.93;;;;;;;;;;5120011;28;20232;-62
2022/08/09 01:15:50;;;;;;;1.30;1.17;;;;;;;;;;5120116;28;20207;-62
2022/08/09 01:18:22;;;;;;;2.93;1.23;;;;;;;;;;5120178;28;20239;-62
2022/08/09 01:21:06;;;;;;;1.10;1.00;;;;;;;;;;5119701;28;20279;-62
2022/08/09 01:23:45;;;;;;;1.03;1.00;;;;;;;;;;5119953;28;20226;-62
2022/08/09 01:26:41;;;;;;;2.23;1.37;;;;;;;;;;5108039;28;20202;-62
2022/08/09 01:29:13;;;;;;;2.47;1.10;;;;;;;;;;5119306;28;20223;-62
2022/08/09 01:31:43;;;;;;;0.90;0.90;;;;;;;;;;5119816;28;20201;-62
2022/08/09 01:34:33;;;;;;;1.20;1.10;;;;;;;;;;5119629;28;20225;-62
2022/08/09 01:37:05;;;;;;;1.63;1.20;;;;;;;;;;5119706;28;20293;-62
2022/08/09 01:39:36;;;;;;;1.87;1.33;;;;;;;;;;5119909;28;20216;-62
2022/08/09 01:42:06;;;;;;;1.00;0.90;;;;;;;;;;5118883;27;20211;-62
2022/08/09 01:44:40;;;;;;;1.30;1.20;;;;;;;;;;5119720;28;20267;-62
2022/08/09 01:47:08;;;;;;;1.20;1.10;;;;;;;;;;5119382;27;20240;-62
2022/08/09 01:49:38;;;;;;;0.97;0.97;;;;;;;;;;5107914;28;20680;-62
2022/08/09 01:52:16;;;;;;;1.17;0.97;;;;;;;;;;5098932;28;20670;-62
2022/08/09 01:54:46;;;;;;;2.40;1.10;;;;;;;;;;5099080;28;20229;-62
2022/08/09 01:57:17;;;;;;;2.03;0.93;;;;;;;;;;5098525;28;20614;-62
2022/08/09 01:59:48;;;;;;;1.57;1.10;;;;;;;;;;5098793;28;20209;-62
2022/08/09 02:02:20;;;;;;;1.73;1.00;;;;;;;;;;5099051;28;20236;-62
2022/08/09 02:04:49;;;;;;;1.20;1.10;;;;;;;;;;5098604;28;20278;-62
2022/08/09 02:07:19;;;;;;;1.20;1.10;;;;;;;;;;5098755;28;20201;-62
2022/08/09 02:10:11;;;;;;;1.87;1.10;;;;;;;;;;5098630;28;20222;-62
2022/08/09 02:12:41;;;;;;;1.70;0.90;;;;;;;;;;5097624;28;20209;-62
2022/08/09 02:15:10;;;;;;;1.13;0.90;;;;;;;;;;5098769;28;20303;-62
2022/08/09 02:17:44;;;;;;;4.50;1.03;;;;;;;;;;5098740;28;20200;-62
2022/08/09 02:20:33;;;;;;;1.10;0.90;;;;;;;;;;5098763;28;20269;-62
2022/08/09 02:23:06;;;;;;;2.03;1.00;;;;;;;;;;5101769;28;20271;-62
2022/08/09 02:25:34;;;;;;;1.77;1.10;;;;;;;;;;5115197;28;20221;-63
2022/08/09 02:28:14;;;;;;;1.10;1.10;;;;;;;;;;5118307;28;20220;-62
2022/08/09 02:30:45;;;;;;;1.00;1.00;;;;;;;;;;5118673;28;20308;-62
2022/08/09 02:33:14;;;;;;;3.67;1.10;;;;;;;;;;5118340;28;20222;-63
2022/08/09 02:35:45;;;;;;;3.23;1.07;;;;;;;;;;5118550;28;20694;-62
2022/08/09 02:38:31;;;;;;;1.40;1.13;;;;;;;;;;5118445;28;20208;-62
2022/08/09 02:41:06;;;;;;;1.93;1.40;;;;;;;;;;5118415;28;20190;-62
2022/08/09 02:43:37;;;;;;;2.47;1.20;;;;;;;;;;5111544;28;20219;-63
2022/08/09 02:46:22;;;;;;;2.00;1.10;;;;;;;;;;5117738;28;20201;-63
2022/08/09 02:48:51;;;;;;;1.00;1.00;;;;;;;;;;5118353;28;20193;-63
2022/08/09 02:51:21;;;;;;;1.17;1.17;;;;;;;;;;5118140;28;20244;-62
2022/08/09 02:53:54;;;;;;;1.73;1.10;;;;;;;;;;5118272;28;20315;-63
2022/08/09 02:56:29;;;;;;;1.70;1.40;;;;;;;;;;5118137;28;20203;-63
2022/08/09 02:59:02;;;;;;;1.03;1.03;;;;;;;;;;5118309;28;20209;-63
2022/08/09 03:01:31;;;;;;;1.37;1.27;;;;;;;;;;5105305;28;20196;-63
2022/08/09 03:04:20;;;;;;;1.40;1.30;;;;;;;;;;5117918;28;20227;-63
2022/08/09 03:06:56;;;;;;;1.90;1.00;;;;;;;;;;5118368;28;20238;-62
2022/08/09 03:09:39;;;;;;;1.40;1.30;;;;;;;;;;5117937;28;20290;-63
2022/08/09 03:12:10;;;;;;;2.30;1.20;;;;;;;;;;5117713;28;20236;-63
2022/08/09 03:14:42;;;;;;;3.90;1.30;;;;;;;;;;5118234;28;20226;-63
2022/08/09 03:17:12;;;;;;;1.20;1.20;;;;;;;;;;5102512;28;20201;-62
2022/08/09 03:19:47;;;;;;;1.73;1.40;;;;;;;;;;5117557;28;20205;-63
2022/08/09 03:22:27;;;;;;;3.10;1.10;;;;;;;;;;5118079;28;20279;-63
2022/08/09 03:24:58;;;;;;;1.40;1.30;;;;;;;;;;5107559;28;20234;-63
2022/08/09 03:27:47;;;;;;;3.07;1.23;;;;;;;;;;5101993;28;20213;-62
2022/08/09 03:30:17;;;;;;;1.10;1.10;;;;;;;;;;5101802;28;20225;-62
2022/08/09 03:33:01;;;;;;;1.43;1.33;;;;;;;;;;5101652;28;20210;-62
2022/08/09 03:35:44;;;;;;;0.87;0.87;;;;;;;;;;5101489;28;20216;-62
2022/08/09 03:38:32;;;;;;;1.07;1.07;;;;;;;;;;5115019;28;20708;-63
2022/08/09 03:41:00;;;;;;;1.43;1.33;;;;;;;;;;5121994;28;20208;-63
2022/08/09 03:43:30;;;;;;;1.17;1.10;;;;;;;;;;5113341;28;20229;-63
2022/08/09 03:46:01;;;;;;;1.93;1.30;;;;;;;;;;5121094;28;20234;-63
2022/08/09 03:48:51;;;;;;;1.03;0.90;;;;;;;;;;5120017;28;20208;-63
2022/08/09 03:51:20;;;;;;;3.37;1.20;;;;;;;;;;5101232;28;20237;-63
2022/08/09 03:54:09;;;;;;;1.20;1.10;;;;;;;;;;5099385;28;20232;-63
2022/08/09 03:56:38;;;;;;;1.33;1.27;;;;;;;;;;5099217;28;20657;-63
2022/08/09 03:59:08;;;;;;;1.40;1.30;;;;;;;;;;5098926;28;20206;-63
2022/08/09 04:01:56;;;;;;;2.20;1.33;;;;;;;;;;5100523;28;20282;-62
2022/08/09 04:04:26;;;;;;;1.00;1.00;;;;;;;;;;5101164;28;20268;-63
2022/08/09 04:07:05;;;;;;;1.30;1.20;;;;;;;;;;5100970;28;20614;-63
2022/08/09 04:09:33;;;;;;;4.17;1.30;;;;;;;;;;5100957;28;20670;-63
2022/08/09 04:12:33;;;;;;;2.50;1.30;;;;;;;;;;5100417;28;20276;-62
2022/08/09 04:15:01;;;;;;;1.33;1.13;;;;;;;;;;5101115;28;20228;-63
2022/08/09 04:17:45;;;;;;;1.90;0.90;;;;;;;;;;5100726;28;20643;-63
2022/08/09 04:20:14;;;;;;;2.07;1.40;;;;;;;;;;5118172;28;20212;-63
2022/08/09 04:22:43;;;;;;;1.40;1.30;;;;;;;;;;5121425;28;20255;-62
2022/08/09 04:25:11;;;;;;;4.53;1.50;;;;;;;;;;5102918;28;20743;-62
2022/08/09 04:27:41;;;;;;;2.93;1.20;;;;;;;;;;5100639;28;20217;-62
2022/08/09 04:30:16;;;;;;;1.30;1.00;;;;;;;;;;5100839;28;20224;-62
2022/08/09 04:32:49;;;;;;;2.50;1.63;;;;;;;;;;5109092;28;20205;-62
2022/08/09 04:35:17;;;;;;;1.87;1.70;;;;;;;;;;5109776;27;20657;-62
2022/08/09 04:37:48;;;;;;;3.37;1.60;;;;;;;;;;5111744;28;20200;-62
2022/08/09 04:40:17;;;;;;;1.53;1.43;;;;;;;;;;5111701;28;20202;-63
2022/08/09 04:42:46;;;;;;;2.20;1.47;;;;;;;;;;5119422;28;20565;-62
2022/08/09 04:45:15;;;;;;;1.57;1.40;;;;;;;;;;5120988;27;20209;-62
2022/08/09 04:47:47;;;;;;;6.33;2.10;;;;;;;;;;5120044;28;20203;-62
2022/08/09 04:50:31;;;;;;;2.63;1.37;;;;;;;;;;5106429;28;20575;-62
2022/08/09 04:53:06;;;;;;;1.87;1.70;;;;;;;;;;5120574;28;20208;-62
2022/08/09 04:55:40;;;;;;;2.37;1.60;;;;;;;;;;5115339;28;20204;-62
2022/08/09 04:58:26;;;;;;;2.10;1.97;;;;;;;;;;5109771;28;20208;-62
2022/08/09 05:00:54;;;;;;;1.37;1.20;;;;;;;;;;5117049;27;20270;-62
2022/08/09 05:03:24;;;;;;;3.53;1.50;;;;;;;;;;5099866;28;20572;-62
2022/08/09 05:06:11;;;;;;;2.50;1.50;;;;;;;;;;5099840;28;20691;-61
2022/08/09 05:08:54;;;;;;;1.40;1.30;;;;;;;;;;5100046;28;20240;-61
2022/08/09 05:11:28;;;;;;;2.70;1.40;;;;;;;;;;5099871;28;20229;-61
2022/08/09 05:14:02;;;;;;;1.47;1.23;;;;;;;;;;5099614;28;20228;-61
2022/08/09 05:16:33;;;;;;;1.43;1.33;;;;;;;;;;5099535;28;20208;-61
2022/08/09 05:19:21;;;;;;;1.87;1.70;;;;;;;;;;5109703;28;20641;-61
2022/08/09 05:21:54;;;;;;;1.83;1.30;;;;;;;;;;5117149;27;20712;-61
2022/08/09 05:24:23;;;;;;;1.97;1.40;;;;;;;;;;5116644;28;20213;-61
2022/08/09 05:26:51;;;;;;;3.23;1.30;;;;;;;;;;5118664;28;20198;-61
2022/08/09 05:29:21;;;;;;;1.83;1.33;;;;;;;;;;5107347;28;20290;-61
2022/08/09 05:31:59;;;;;;;5.00;3.00;;;;;;;;;;5099318;28;20310;-61
2022/08/09 05:34:28;;;;;;;4.77;1.27;;;;;;;;;;5099379;28;20263;-61
2022/08/09 05:37:00;;;;;;;1.50;1.40;;;;;;;;;;5099209;28;20334;-61
2022/08/09 05:39:33;;;;;;;2.37;1.43;;;;;;;;;;5099354;28;20205;-61
2022/08/09 05:42:09;;;;;;;1.33;1.23;;;;;;;;;;5099154;28;20215;-61
2022/08/09 05:44:47;;;;;;;1.77;1.40;;;;;;;;;;5099392;28;20230;-61
2022/08/09 05:47:22;;;;;;;1.87;1.40;;;;;;;;;;5099490;28;20204;-61
2022/08/09 05:49:52;;;;;;;2.10;1.50;;;;;;;;;;5118081;28;20286;-61
2022/08/09 05:52:42;;;;;;;2.83;1.77;;;;;;;;;;5119278;27;20226;-61
2022/08/09 05:55:11;;;;;;;3.93;1.03;;;;;;;;;;5119237;28;20256;-61
2022/08/09 05:57:48;;;;;;;1.43;1.10;;;;;;;;;;5119147;28;20209;-61
2022/08/09 06:00:23;;;;;;;3.50;1.40;;;;;;;;;;5119184;28;20612;-61
2022/08/09 06:02:52;;;;;;;1.60;1.50;;;;;;;;;;5119369;28;20201;-63
2022/08/09 06:05:23;;;;;;;1.20;1.20;;;;;;;;;;5119045;28;20751;-61
2022/08/09 06:08:13;;;;;;;2.87;1.80;;;;;;;;;;5118881;28;20215;-61
2022/08/09 06:10:46;;;;;;;5.27;1.50;;;;;;;;;;5118876;28;20222;-61
2022/08/09 06:13:16;;;;;;;1.47;1.37;;;;;;;;;;5118714;28;20234;-61
2022/08/09 06:15:47;;;;;;;1.90;1.60;;;;;;;;;;5118915;28;20769;-61
2022/08/09 06:18:18;;;;;;;2.03;1.60;;;;;;;;;;5118770;28;20530;-61
2022/08/09 06:20:51;;;;;;;2.53;1.57;;;;;;;;;;5119074;28;20232;-62
2022/08/09 06:23:26;;;;;;;4.50;1.43;;;;;;;;;;5116485;28;20299;-62
2022/08/09 06:26:14;;;;;;;1.47;1.33;;;;;;;;;;5116520;28;20270;-63
2022/08/09 06:28:48;;;;;;;1.53;1.40;;;;;;;;;;5107872;28;20208;-61
2022/08/09 06:31:27;;;;;;;1.87;1.40;;;;;;;;;;5098164;28;20214;-61
2022/08/09 06:33:58;;;;;;;3.23;1.50;;;;;;;;;;5098176;28;20276;-64
2022/08/09 06:36:26;;;;;;;1.47;1.37;;;;;;;;;;5098162;28;20677;-66
2022/08/09 06:38:58;;;;;;;1.40;1.30;;;;;;;;;;5103958;28;20202;-65
2022/08/09 06:41:36;;;;;;;2.83;1.30;;;;;;;;;;5118413;28;20209;-66
2022/08/09 06:44:23;;;;;;;1.57;1.47;;;;;;;;;;5118308;28;20782;-65
2022/08/09 06:46:53;;;;;;;4.20;1.50;;;;;;;;;;5118498;28;20214;-65
2022/08/09 06:49:22;;;;;;;3.33;1.53;;;;;;;;;;5114820;28;20288;-65
2022/08/09 06:52:10;;;;;;;1.80;1.50;;;;;;;;;;5098176;28;20237;-65
2022/08/09 06:54:44;;;;;;;5.03;1.33;;;;;;;;;;5105804;28;20311;-65
2022/08/09 06:57:12;;;;;;;3.27;1.60;;;;;;;;;;5118201;28;20211;-65
2022/08/09 06:59:41;;;;;;;1.63;1.20;;;;;;;;;;5118069;28;20212;-66
2022/08/09 07:02:29;;;;;;;3.20;1.67;;;;;;;;;;5118704;28;20208;-66
2022/08/09 07:05:04;;;;;;;3.10;1.77;;;;;;;;;;5117918;28;20298;-65
2022/08/09 07:07:33;;;;;;;2.63;1.50;;;;;;;;;;5118192;28;20288;-67
2022/08/09 07:10:23;;;;;;;6.67;1.47;;;;;;;;;;5114751;28;20201;-66
2022/08/09 07:12:58;;;;;;;1.20;1.20;;;;;;;;;;5097227;28;20229;-66
2022/08/09 07:15:45;;;;;;;1.90;1.33;;;;;;;;;;5096553;28;20577;-66
2022/08/09 07:18:33;;;;;;;2.43;1.77;;;;;;;;;;5101336;28;20209;-65
2022/08/09 07:21:05;;;;;;;2.93;1.50;;;;;;;;;;5097678;28;20264;-64
2022/08/09 07:23:34;;;;;;;1.47;1.37;;;;;;;;;;5105779;28;20225;-65
2022/08/09 07:26:14;;;;;;;3.17;1.80;;;;;;;;;;5105557;28;20259;-61
2022/08/09 07:28:43;;;;;;;5.00;1.70;;;;;;;;;;5117583;28;20207;-59
2022/08/09 07:31:31;;;;;;;3.13;1.63;;;;;;;;;;5118170;28;20294;-59
2022/08/09 07:34:07;;;;;;;4.00;1.40;;;;;;;;;;5117904;28;20233;-59
2022/08/09 07:36:46;;;;;;;1.80;1.47;;;;;;;;;;5117991;28;20223;-59
2022/08/09 07:39:15;;;;;;;1.60;1.43;;;;;;;;;;5117818;28;20553;-59
2022/08/09 07:42:04;;;;;;;1.57;1.47;;;;;;;;;;5117531;28;20218;-59
2022/08/09 07:44:33;;;;;;;4.27;1.33;;;;;;;;;;5117921;28;20221;-59
2022/08/09 07:47:20;;;;;;;1.47;1.37;;;;;;;;;;5116806;28;20296;-59
2022/08/09 07:49:50;;;;;;;3.30;1.80;;;;;;;;;;5099646;28;20232;-59
2022/08/09 07:52:35;;;;;;;3.63;1.80;;;;;;;;;;5095371;28;20251;-59
2022/08/09 07:55:03;;;;;;;3.10;1.80;;;;;;;;;;5095614;28;20226;-59
2022/08/09 07:57:37;;;;;;;2.80;1.60;;;;;;;;;;5095107;28;20746;-59
2022/08/09 08:00:15;;;;;;;1.63;1.53;;;;;;;;;;5095691;28;20233;-58
2022/08/09 08:03:02;;;;;;;3.10;1.70;;;;;;;;;;5096740;28;20653;-59
2022/08/09 08:05:31;;;;;;;2.90;1.53;;;;;;;;;;5097557;28;20209;-59
2022/08/09 08:08:19;;;;;;;3.00;1.97;;;;;;;;;;5097603;28;20217;-59
2022/08/09 08:11:07;;;;;;;2.13;1.50;;;;;;;;;;5099037;28;20610;-58
2022/08/09 08:13:57;;;;;;;4.27;1.57;;;;;;;;;;5100522;28;20240;-59
2022/08/09 08:16:26;;;;;;;2.07;1.50;;;;;;;;;;5109184;28;20209;-59
2022/08/09 08:18:58;;;;;;;8.30;1.60;;;;;;;;;;5107999;28;20219;-59
2022/08/09 08:21:30;;;;;;;3.37;1.43;;;;;;;;;;5121429;27;20212;-59
2022/08/09 08:23:58;;;;;;;3.80;1.70;;;;;;;;;;5113225;27;20226;-59
2022/08/09 08:26:38;;;;;;;6.57;1.60;;;;;;;;;;5100829;28;20232;-59
2022/08/09 08:29:24;;;;;;;2.47;1.40;;;;;;;;;;5100603;28;20727;-59
2022/08/09 08:31:55;;;;;;;2.30;1.57;;;;;;;;;;5100803;28;20235;-59
2022/08/09 08:34:32;;;;;;;2.40;1.50;;;;;;;;;;5100300;28;20235;-59
2022/08/09 08:37:01;;;;;;;1.87;1.60;;;;;;;;;;5100789;28;20237;-59
2022/08/09 08:39:29;;;;;;;2.33;1.50;;;;;;;;;;5100362;28;20208;-59
2022/08/09 08:42:10;;;;;;;1.60;1.50;;;;;;;;;;5100054;28;20577;-59
2022/08/09 08:44:39;;;;;;;3.60;1.40;;;;;;;;;;5100173;28;20631;-59
2022/08/09 08:47:08;;;;;;;3.20;1.70;;;;;;;;;;5100451;28;20211;-59
2022/08/09 08:49:40;;;;;;;1.90;1.70;;;;;;;;;;5117482;28;20244;-59
2022/08/09 08:52:16;;;;;;;3.10;1.30;;;;;;;;;;5120887;28;20256;-59
2022/08/09 08:55:04;;;;;;;1.53;1.43;;;;;;;;;;5120445;28;20602;-59
2022/08/09 08:57:33;;;;;;;3.83;1.50;;;;;;;;;;5120076;28;20246;-59
2022/08/09 09:00:06;;;;;;;1.60;1.50;;;;;;;;;;5120419;28;20819;-59
2022/08/09 09:02:44;;;;;;;2.90;1.80;;;;;;;;;;5120667;28;20290;-59
2022/08/09 09:05:21;;;;;;;4.30;1.53;;;;;;;;;;5120259;28;20684;-59
2022/08/09 09:08:10;;;;;;;2.50;1.60;;;;;;;;;;5120558;28;20267;-59
2022/08/09 09:10:59;;;;;;;2.13;1.70;;;;;;;;;;5120182;28;20621;-59
2022/08/09 09:13:28;;;;;;;9.93;2.97;;;;;;;;;;5119815;28;20710;-59
2022/08/09 09:16:17;;;;;;;1.83;1.30;;;;;;;;;;5120155;28;20303;-59
2022/08/09 09:18:58;;;;;;;1.87;1.40;;;;;;;;;;5120219;28;20215;-58
2022/08/09 09:22:05;;;;;;;1.73;1.63;;;;;;;;;;5119535;28;20302;-59
2022/08/09 09:24:39;;;;;;;1.87;1.60;;;;;;;;;;5105876;28;20568;-59
2022/08/09 09:27:11;;;;;;;1.60;1.50;;;;;;;;;;5099345;28;20212;-59
2022/08/09 09:30:09;;;;;;;2.67;1.50;;;;;;;;;;5099741;28;20289;-59
2022/08/09 09:33:00;;;;;;;2.67;1.83;;;;;;;;;;5099280;28;20579;-59
2022/08/09 09:35:28;;;;;;;1.85;1.75;;;;;;;;;;5099386;28;20576;-59
2022/08/09 09:37:59;;;;;;;2.63;1.88;;;;;;;;;;5099521;28;20205;-59
2022/08/09 09:40:40;;;;;;;2.10;1.70;;;;;;;;;;5099028;28;20234;-59
2022/08/09 09:43:22;;;;;;;1.80;1.30;;;;;;;;;;5098788;28;20230;-59
2022/08/09 09:45:51;;;;;;;2.85;1.40;;;;;;;;;;5099077;28;20613;-59
2022/08/09 09:48:55;;;;;;;1.75;1.60;;;;;;;;;;5107754;28;20571;-59
2022/08/09 09:51:23;;;;;;;1.77;1.60;;;;;;;;;;5119247;28;20234;-59
2022/08/09 09:54:07;;;;;;;2.17;1.40;;;;;;;;;;5119428;28;20229;-59
2022/08/09 09:56:49;;;;;;;1.58;1.40;;;;;;;;;;5119257;28;20235;-59
2022/08/09 09:59:37;;;;;;;1.42;1.33;;;;;;;;;;5119281;28;20214;-59
2022/08/09 10:02:06;;;;;;;1.60;1.50;;;;;;;;;;5119435;28;20216;-59
2022/08/09 10:04:36;;;;;;;1.57;1.30;;;;;;;;;;5119462;28;20236;-59
2022/08/09 10:07:04;;;;;;;1.80;1.63;;;;;;;;;;5119082;28;20268;-59
2022/08/09 10:09:46;;;;;;;1.63;1.50;;;;;;;;;;5119216;28;20548;-59
2022/08/09 10:12:23;;;;;;;4.50;2.10;;;;;;;;;;5118633;28;20666;-59
2022/08/09 10:15:03;;;;;;;2.10;1.80;;;;;;;;;;5118735;28;20314;-59
2022/08/09 10:17:33;;;;;;;3.17;2.87;;;;;;;;;;5119027;28;20254;-59
2022/08/09 10:20:25;;;;;;;2.07;1.40;;;;;;;;;;5118808;28;20315;-59
2022/08/09 10:23:12;;;;;;;1.97;1.83;;;;;;;;;;5118825;28;20214;-59
2022/08/09 10:25:44;;;;;;;1.80;1.70;;;;;;;;;;5098931;28;20198;-59
2022/08/09 10:28:33;;;;;;;2.70;1.60;;;;;;;;;;5098114;28;20221;-59
2022/08/09 10:31:01;;;;;;;4.00;1.60;;;;;;;;;;5098556;28;20207;-59
2022/08/09 10:33:50;;;;;;;2.67;1.53;;;;;;;;;;5097408;28;20323;-59
2022/08/09 10:36:39;;;;;;;4.75;2.10;;;;;;;;;;5098396;28;20297;-59
2022/08/09 10:39:09;;;;;;;3.28;1.30;;;;;;;;;;5098231;28;20589;-59
2022/08/09 10:41:42;;;;;;;2.15;1.42;;;;;;;;;;5097805;28;20208;-59
2022/08/09 10:44:10;;;;;;;2.15;1.95;;;;;;;;;;5098227;28;20270;-59
2022/08/09 10:46:51;;;;;;;1.53;1.43;;;;;;;;;;5098391;28;20217;-59
2022/08/09 10:49:31;;;;;;;1.65;1.55;;;;;;;;;;5113506;28;20202;-60
2022/08/09 10:52:27;;;;;;;2.08;1.75;;;;;;;;;;5118620;28;20210;-59
2022/08/09 10:55:02;;;;;;;2.20;1.70;;;;;;;;;;5118222;28;20325;-59
2022/08/09 10:57:35;;;;;;;1.45;1.35;;;;;;;;;;5118205;28;20250;-59
2022/08/09 11:00:30;;;;;;;2.72;1.40;;;;;;;;;;5118594;28;20217;-59
2022/08/09 11:02:58;;;;;;;3.95;1.65;;;;;;;;;;5118483;28;20204;-59
2022/08/09 11:06:01;;;;;;;2.47;1.70;;;;;;;;;;5118351;28;20203;-59
2022/08/09 11:08:41;;;;;;;1.70;1.60;;;;;;;;;;5117931;28;20263;-59
2022/08/09 11:11:15;;;;;;;3.38;1.90;;;;;;;;;;5118060;28;20214;-59
2022/08/09 11:13:43;;;;;;;1.70;1.60;;;;;;;;;;5118020;28;20249;-59
2022/08/09 11:16:37;;;;;;;1.67;1.58;;;;;;;;;;5117888;28;20210;-59
2022/08/09 11:19:08;;;;;;;1.77;1.67;;;;;;;;;;5105825;28;20285;-59
2022/08/09 11:21:57;;;;;;;1.67;1.58;;;;;;;;;;5115233;28;20238;-59
2022/08/09 11:25:08;;;;;;;2.53;1.50;;;;;;;;;;5101815;28;20233;-59
2022/08/09 11:27:38;;;;;;;1.83;1.55;;;;;;;;;;5097605;28;20214;-59
2022/08/09 11:30:33;;;;;;;2.88;1.50;;;;;;;;;;5097502;28;20212;-60
2022/08/09 11:33:04;;;;;;;2.90;1.50;;;;;;;;;;5097563;28;20207;-59
2022/08/09 11:35:36;;;;;;;1.80;1.70;;;;;;;;;;5097406;28;20270;-59
2022/08/09 11:38:19;;;;;;;1.38;1.27;;;;;;;;;;5097646;28;20216;-59
2022/08/09 11:40:51;;;;;;;3.90;1.70;;;;;;;;;;5097207;28;20261;-60
2022/08/09 11:43:41;;;;;;;1.50;1.40;;;;;;;;;;5096999;28;20229;-59
2022/08/09 11:46:10;;;;;;;1.42;1.42;;;;;;;;;;5101321;28;20205;-60
2022/08/09 11:48:48;;;;;;;1.63;1.52;;;;;;;;;;5109944;28;20200;-60
2022/08/09 11:51:16;;;;;;;2.33;1.40;;;;;;;;;;5121713;28;20262;-60
2022/08/09 11:54:17;;;;;;;1.65;1.50;;;;;;;;;;5121671;28;20316;-59
2022/08/09 11:57:11;;;;;;;1.20;1.15;;;;;;;;;;5121514;28;20208;-59
2022/08/09 11:59:41;;;;;;;3.22;1.73;;;;;;;;;;5109024;27;20276;-59
2022/08/09 12:02:19;;;;;;;2.97;1.52;;;;;;;;;;5121830;28;20207;-59
2022/08/09 12:05:07;;;;;;;1.50;1.23;;;;;;;;;;5121660;28;20248;-59
2022/08/09 12:07:44;;;;;;;2.75;1.60;;;;;;;;;;5121781;28;20211;-60
2022/08/09 12:10:13;;;;;;;1.30;1.30;;;;;;;;;;5121626;28;20204;-59
2022/08/09 12:13:01;;;;;;;1.88;1.70;;;;;;;;;;5121367;28;20215;-59
2022/08/09 12:15:50;;;;;;;1.65;1.55;;;;;;;;;;5121327;28;20319;-59
2022/08/09 12:18:19;;;;;;;1.70;1.33;;;;;;;;;;5121436;28;20204;-59
2022/08/09 12:21:00;;;;;;;1.70;1.52;;;;;;;;;;5121553;28;20296;-59
2022/08/09 12:23:29;;;;;;;1.70;1.60;;;;;;;;;;5116980;28;20251;-59
2022/08/09 12:26:17;;;;;;;3.90;1.60;;;;;;;;;;5100510;28;20201;-59
2022/08/09 12:28:53;;;;;;;1.52;1.48;;;;;;;;;;5100869;28;20211;-59
2022/08/09 12:31:44;;;;;;;5.90;2.00;;;;;;;;;;5100780;28;20270;-59
2022/08/09 12:34:32;;;;;;;1.33;1.33;;;;;;;;;;5100449;28;20225;-59
2022/08/09 12:37:02;;;;;;;1.92;1.80;;;;;;;;;;5100547;28;20668;-59
2022/08/09 12:39:58;;;;;;;1.50;1.40;;;;;;;;;;5108300;28;20296;-59
2022/08/09 12:42:28;;;;;;;1.38;1.33;;;;;;;;;;5117576;28;20235;-59
2022/08/09 12:44:57;;;;;;;1.70;1.60;;;;;;;;;;5118920;28;20212;-59
2022/08/09 12:47:28;;;;;;;1.55;1.45;;;;;;;;;;5117449;28;20249;-59
2022/08/09 12:50:18;;;;;;;1.40;1.30;;;;;;;;;;5117805;28;20231;-59
2022/08/09 12:52:51;;;;;;;1.50;1.40;;;;;;;;;;5117637;28;20196;-59
2022/08/09 12:55:36;;;;;;;3.72;1.50;;;;;;;;;;5116687;28;20398;-59
2022/08/09 12:58:24;;;;;;;1.95;1.65;;;;;;;;;;5115943;28;20205;-59
2022/08/09 13:00:55;;;;;;;5.72;1.58;;;;;;;;;;5117157;28;20200;-59
2022/08/09 13:03:29;;;;;;;1.73;1.52;;;;;;;;;;5119316;28;20212;-59
2022/08/09 13:06:24;;;;;;;4.10;1.73;;;;;;;;;;5118544;28;20729;-60
2022/08/09 13:09:03;;;;;;;1.55;1.48;;;;;;;;;;5116181;28;20211;-59
2022/08/09 13:11:33;;;;;;;2.55;1.65;;;;;;;;;;5118522;28;20546;-58
2022/08/09 13:14:17;;;;;;;1.70;1.60;;;;;;;;;;5116265;28;20224;-58
2022/08/09 13:17:15;;;;;;;1.77;1.33;;;;;;;;;;5116386;28;20220;-58
2022/08/09 13:20:07;;;;;;;2.35;1.60;;;;;;;;;;5103520;28;20208;-58
2022/08/09 13:22:50;;;;;;;2.75;1.45;;;;;;;;;;5099264;28;20209;-58
2022/08/09 13:25:39;;;;;;;1.58;1.48;;;;;;;;;;5106885;28;20232;-58
2022/08/09 13:28:10;;;;;;;1.25;1.23;;;;;;;;;;5119082;28;20208;-58
2022/08/09 13:30:45;;;;;;;1.70;1.60;;;;;;;;;;5118533;28;20200;-58
2022/08/09 13:33:34;;;;;;;3.65;1.48;;;;;;;;;;5118768;28;20234;-58
2022/08/09 13:36:22;;;;;;;1.60;1.50;;;;;;;;;;5119161;28;20232;-58
2022/08/09 13:39:09;;;;;;;1.98;1.65;;;;;;;;;;5119474;28;20652;-58
2022/08/09 13:41:59;;;;;;;2.60;2.22;;;;;;;;;;5119038;28;20201;-58
2022/08/09 13:44:29;;;;;;;2.38;1.30;;;;;;;;;;5119268;28;20277;-58
2022/08/09 13:46:57;;;;;;;2.85;1.50;;;;;;;;;;5119779;28;20200;-58
2022/08/09 13:49:45;;;;;;;1.20;1.20;;;;;;;;;;5112460;28;20276;-58
2022/08/09 13:52:26;;;;;;;2.75;1.27;;;;;;;;;;5099146;28;20237;-58
2022/08/09 13:54:54;;;;;;;1.48;1.38;;;;;;;;;;5098886;28;20282;-57
2022/08/09 13:57:28;;;;;;;1.60;1.50;;;;;;;;;;5098686;28;20281;-58
2022/08/09 14:00:03;;;;;;;1.90;1.80;;;;;;;;;;5099102;28;20213;-58
2022/08/09 14:02:32;;;;;;;1.67;1.50;;;;;;;;;;5098668;28;20672;-58
2022/08/09 14:05:10;;;;;;;2.30;1.38;;;;;;;;;;5098785;28;20365;-57
2022/08/09 14:08:01;;;;;;;1.70;1.60;;;;;;;;;;5097737;28;20660;-58
2022/08/09 14:10:31;;;;;;;1.50;1.40;;;;;;;;;;5098818;28;20201;-57
2022/08/09 14:13:17;;;;;;;1.50;1.40;;;;;;;;;;5098638;28;20226;-58
2022/08/09 14:16:05;;;;;;;2.42;1.67;;;;;;;;;;5098785;28;20228;-59
2022/08/09 14:18:38;;;;;;;2.83;1.58;;;;;;;;;;5116793;28;20204;-59
2022/08/09 14:21:16;;;;;;;3.63;1.63;;;;;;;;;;5119189;28;20283;-59
2022/08/09 14:23:46;;;;;;;2.75;1.40;;;;;;;;;;5113089;28;20255;-59
2022/08/09 14:26:23;;;;;;;1.90;1.80;;;;;;;;;;5098130;28;20634;-59
2022/08/09 14:29:01;;;;;;;6.38;1.90;;;;;;;;;;5098697;28;20205;-60
2022/08/09 14:31:29;;;;;;;1.77;1.42;;;;;;;;;;5098288;28;20269;-59
2022/08/09 14:34:17;;;;;;;3.13;1.70;;;;;;;;;;5098522;28;20225;-59
2022/08/09 14:37:00;;;;;;;1.85;1.75;;;;;;;;;;5098440;28;20224;-59
2022/08/09 14:39:29;;;;;;;1.80;1.40;;;;;;;;;;5098331;28;20210;-59
2022/08/09 14:42:15;;;;;;;3.75;1.48;;;;;;;;;;5097857;28;20613;-59
2022/08/09 14:45:04;;;;;;;2.50;1.52;;;;;;;;;;5101675;28;20307;-60
2022/08/09 14:47:52;;;;;;;2.47;1.65;;;;;;;;;;5118212;28;20281;-59
2022/08/09 14:50:27;;;;;;;4.40;1.65;;;;;;;;;;5114777;28;20240;-59
2022/08/09 14:52:55;;;;;;;2.15;1.60;;;;;;;;;;5117862;28;20663;-58
2022/08/09 14:55:25;;;;;;;3.80;1.58;;;;;;;;;;5104995;28;20286;-58
2022/08/09 14:57:59;;;;;;;1.73;1.58;;;;;;;;;;5113696;28;20215;-58
2022/08/09 15:00:29;;;;;;;4.85;1.73;;;;;;;;;;5118062;28;20563;-58
2022/08/09 15:02:57;;;;;;;1.83;1.70;;;;;;;;;;5098684;28;20198;-59
2022/08/09 15:05:26;;;;;;;1.85;1.40;;;;;;;;;;5101279;28;20731;-58
2022/08/09 15:07:56;;;;;;;1.70;1.60;;;;;;;;;;5106785;28;20204;-59
2022/08/09 15:10:26;;;;;;;2.65;1.50;;;;;;;;;;5117823;28;20655;-59
2022/08/09 15:12:55;;;;;;;2.92;1.55;;;;;;;;;;5117728;28;20239;-59
2022/08/09 15:15:23;;;;;;;1.63;1.52;;;;;;;;;;5118016;28;20620;-58
2022/08/09 15:17:55;;;;;;;2.42;1.63;;;;;;;;;;5117815;28;20220;-58
2022/08/09 15:20:26;;;;;;;2.33;1.70;;;;;;;;;;5120942;28;20204;-58
2022/08/09 15:23:14;;;;;;;7.72;1.98;;;;;;;;;;5120164;27;20228;-57
2022/08/09 15:26:03;;;;;;;2.55;1.92;;;;;;;;;;5102003;28;20649;-58
2022/08/09 15:28:35;;;;;;;1.73;1.58;;;;;;;;;;5121220;28;20201;-58
2022/08/09 15:31:08;;;;;;;2.63;1.67;;;;;;;;;;5118804;28;20279;-58
2022/08/09 15:33:45;;;;;;;1.70;1.60;;;;;;;;;;5121909;28;20248;-59
2022/08/09 15:36:33;;;;;;;1.70;1.60;;;;;;;;;;5119867;28;20258;-58
2022/08/09 15:39:01;;;;;;;1.58;1.48;;;;;;;;;;5121949;28;20636;-58
2022/08/09 15:41:32;;;;;;;1.70;1.60;;;;;;;;;;5121722;28;20208;-59